Edsbyn, Sweden
Current Conditions -  °F | °C
As of 4:20 AM on Tuesday 27 Jan 2015 (Local Time) from ESSD Reporting Station
Overcast Overcast  
Wind Chill: 23°   Ceiling: 900
Heat Index: 30°   Visibility: 6mi
Dew Point: 30°   Wind: 7mph
Humidity: 100%   Direction: 290°WNW
Pressure: 29.68"   Gusts: NA
Location:  61.38°N, 15.82°E
Report Text: ESSD 270320Z AUTO 29006KT 9999 OVC009/// M01/M01 Q1005
Loading
Personal Weather Stations






























Interactive Weather Map New forecast layout! Learn more

10-Day Weather Forecast

Advertisements
Track Severe Weather on mobile